Terminal Aerodrome Forecast
Issued by NWS

Home | Current Version | Previous Version | Text Only | Print | Product List | Glossary On
Versions: 1 2 3 4 5 6 7 8 9 10 11 12 13 14 15 16 17 18 19 20 21 22 23 24
000
FTAK31 PAFA 021730
TAFAOT
TAF
PAOT 021730Z 0218/0318 11013KT P6SM OVC100
     FM030300 11021KT P6SM SCT080 BKN120 OVC200
     FM030600 11008KT P6SM BKN070 OVC120=

USA.gov is the U.S. government's official web portal to all federal, state and local government web resources and services.